sensor_id;sensor_type;location;lat;lon;timestamp;temperature;humidity
37956;DHT22;23776;51.592;7.180;2023-02-18T00:01:24;10.30;98.50
37956;DHT22;23776;51.592;7.180;2023-02-18T00:03:50;10.40;98.70
37956;DHT22;23776;51.592;7.180;2023-02-18T00:06:22;10.40;98.70
37956;DHT22;23776;51.592;7.180;2023-02-18T00:08:49;10.40;98.50
37956;DHT22;23776;51.592;7.180;2023-02-18T00:11:17;10.30;98.70
37956;DHT22;23776;51.592;7.180;2023-02-18T00:13:48;10.30;99.00
37956;DHT22;23776;51.592;7.180;2023-02-18T00:16:13;10.40;98.80
37956;DHT22;23776;51.592;7.180;2023-02-18T00:18:39;10.40;98.70
37956;DHT22;23776;51.592;7.180;2023-02-18T00:21:06;10.30;98.70
37956;DHT22;23776;51.592;7.180;2023-02-18T00:23:32;10.40;98.80
37956;DHT22;23776;51.592;7.180;2023-02-18T00:26:07;10.40;98.80
37956;DHT22;23776;51.592;7.180;2023-02-18T00:28:33;10.40;99.00
37956;DHT22;23776;51.592;7.180;2023-02-18T00:31:08;10.40;98.80
37956;DHT22;23776;51.592;7.180;2023-02-18T00:33:34;10.40;98.80
37956;DHT22;23776;51.592;7.180;2023-02-18T00:36:09;10.50;98.90
37956;DHT22;23776;51.592;7.180;2023-02-18T00:38:35;10.40;99.00
37956;DHT22;23776;51.592;7.180;2023-02-18T00:41:02;10.40;99.10
37956;DHT22;23776;51.592;7.180;2023-02-18T00:43:27;10.40;99.00
37956;DHT22;23776;51.592;7.180;2023-02-18T00:45:53;10.20;98.90
37956;DHT22;23776;51.592;7.180;2023-02-18T00:48:19;10.40;98.80
37956;DHT22;23776;51.592;7.180;2023-02-18T00:50:45;10.40;98.90
37956;DHT22;23776;51.592;7.180;2023-02-18T00:53:11;10.40;99.00
37956;DHT22;23776;51.592;7.180;2023-02-18T00:55:44;10.40;98.90
37956;DHT22;23776;51.592;7.180;2023-02-18T00:58:12;10.40;98.90
37956;DHT22;23776;51.592;7.180;2023-02-18T01:00:38;10.50;99.10
37956;DHT22;23776;51.592;7.180;2023-02-18T01:03:04;10.40;98.80
37956;DHT22;23776;51.592;7.180;2023-02-18T01:05:32;10.40;98.90
37956;DHT22;23776;51.592;7.180;2023-02-18T01:07:58;10.50;99.10
37956;DHT22;23776;51.592;7.180;2023-02-18T01:10:23;10.40;98.90
37956;DHT22;23776;51.592;7.180;2023-02-18T01:12:49;10.40;99.10
37956;DHT22;23776;51.592;7.180;2023-02-18T01:15:16;10.50;99.20
37956;DHT22;23776;51.592;7.180;2023-02-18T01:17:42;10.40;98.80
37956;DHT22;23776;51.592;7.180;2023-02-18T01:20:09;10.50;99.00
37956;DHT22;23776;51.592;7.180;2023-02-18T01:22:34;10.50;98.80
37956;DHT22;23776;51.592;7.180;2023-02-18T01:25:00;10.50;98.60
37956;DHT22;23776;51.592;7.180;2023-02-18T01:27:26;10.40;98.70
37956;DHT22;23776;51.592;7.180;2023-02-18T01:29:51;10.40;98.60
37956;DHT22;23776;51.592;7.180;2023-02-18T01:32:17;10.50;98.80
37956;DHT22;23776;51.592;7.180;2023-02-18T01:34:42;10.40;98.70
37956;DHT22;23776;51.592;7.180;2023-02-18T01:37:08;10.40;98.90
37956;DHT22;23776;51.592;7.180;2023-02-18T01:39:34;10.40;98.90
37956;DHT22;23776;51.592;7.180;2023-02-18T01:41:59;10.40;98.90
37956;DHT22;23776;51.592;7.180;2023-02-18T01:44:27;10.50;98.80
37956;DHT22;23776;51.592;7.180;2023-02-18T01:46:53;10.40;98.60
37956;DHT22;23776;51.592;7.180;2023-02-18T01:49:24;10.40;98.80
37956;DHT22;23776;51.592;7.180;2023-02-18T01:52:14;10.40;98.70
37956;DHT22;23776;51.592;7.180;2023-02-18T01:54:52;10.40;98.80
37956;DHT22;23776;51.592;7.180;2023-02-18T01:57:24;10.40;98.60
37956;DHT22;23776;51.592;7.180;2023-02-18T01:59:55;10.40;98.70
37956;DHT22;23776;51.592;7.180;2023-02-18T02:02:24;10.40;98.80
37956;DHT22;23776;51.592;7.180;2023-02-18T02:04:51;10.40;98.80
37956;DHT22;23776;51.592;7.180;2023-02-18T02:07:19;10.40;98.80
37956;DHT22;23776;51.592;7.180;2023-02-18T02:09:47;10.40;98.70
37956;DHT22;23776;51.592;7.180;2023-02-18T02:12:28;10.40;98.50
37956;DHT22;23776;51.592;7.180;2023-02-18T02:17:49;10.40;98.40
37956;DHT22;23776;51.592;7.180;2023-02-18T02:35:11;10.50;98.70
37956;DHT22;23776;51.592;7.180;2023-02-18T02:37:51;10.50;98.50
37956;DHT22;23776;51.592;7.180;2023-02-18T02:43:08;10.40;98.40
37956;DHT22;23776;51.592;7.180;2023-02-18T02:51:20;10.40;98.50
37956;DHT22;23776;51.592;7.180;2023-02-18T02:53:48;10.50;98.50
37956;DHT22;23776;51.592;7.180;2023-02-18T02:56:19;10.50;98.30
37956;DHT22;23776;51.592;7.180;2023-02-18T02:58:53;10.50;98.10
37956;DHT22;23776;51.592;7.180;2023-02-18T03:04:43;10.50;98.00
37956;DHT22;23776;51.592;7.180;2023-02-18T03:07:27;10.40;98.20
37956;DHT22;23776;51.592;7.180;2023-02-18T03:12:55;10.50;98.00
37956;DHT22;23776;51.592;7.180;2023-02-18T03:16:19;10.50;98.00
37956;DHT22;23776;51.592;7.180;2023-02-18T03:19:01;10.40;98.10
37956;DHT22;23776;51.592;7.180;2023-02-18T03:24:10;10.40;98.40
37956;DHT22;23776;51.592;7.180;2023-02-18T03:26:41;10.40;98.80
37956;DHT22;23776;51.592;7.180;2023-02-18T03:29:09;10.50;98.70
37956;DHT22;23776;51.592;7.180;2023-02-18T03:31:38;10.40;98.30
37956;DHT22;23776;51.592;7.180;2023-02-18T03:34:12;10.40;98.80
37956;DHT22;23776;51.592;7.180;2023-02-18T03:36:38;12.50;99.40
37956;DHT22;23776;51.592;7.180;2023-02-18T03:39:13;10.40;98.90
37956;DHT22;23776;51.592;7.180;2023-02-18T03:41:39;10.50;98.90
37956;DHT22;23776;51.592;7.180;2023-02-18T03:44:06;10.50;98.70
37956;DHT22;23776;51.592;7.180;2023-02-18T03:46:33;10.50;98.30
37956;DHT22;23776;51.592;7.180;2023-02-18T03:49:00;10.50;98.50
37956;DHT22;23776;51.592;7.180;2023-02-18T03:51:26;10.50;98.30
37956;DHT22;23776;51.592;7.180;2023-02-18T03:53:51;10.60;98.20
37956;DHT22;23776;51.592;7.180;2023-02-18T03:56:18;11.90;98.30
37956;DHT22;23776;51.592;7.180;2023-02-18T03:58:44;10.50;97.80
37956;DHT22;23776;51.592;7.180;2023-02-18T04:01:10;10.50;98.10
37956;DHT22;23776;51.592;7.180;2023-02-18T04:03:35;10.50;98.10
37956;DHT22;23776;51.592;7.180;2023-02-18T04:06:01;10.50;98.00
37956;DHT22;23776;51.592;7.180;2023-02-18T04:08:26;10.60;97.90
37956;DHT22;23776;51.592;7.180;2023-02-18T04:10:52;10.60;97.90
37956;DHT22;23776;51.592;7.180;2023-02-18T04:13:18;10.50;97.80
37956;DHT22;23776;51.592;7.180;2023-02-18T04:15:44;10.50;97.50
37956;DHT22;23776;51.592;7.180;2023-02-18T04:18:10;10.60;97.70
37956;DHT22;23776;51.592;7.180;2023-02-18T04:20:36;10.50;97.90
37956;DHT22;23776;51.592;7.180;2023-02-18T04:23:02;10.50;98.00
37956;DHT22;23776;51.592;7.180;2023-02-18T04:25:28;10.60;97.90
37956;DHT22;23776;51.592;7.180;2023-02-18T04:27:54;10.60;97.90
37956;DHT22;23776;51.592;7.180;2023-02-18T04:30:19;10.60;97.90
37956;DHT22;23776;51.592;7.180;2023-02-18T04:32:45;10.60;97.60
37956;DHT22;23776;51.592;7.180;2023-02-18T04:35:11;10.60;97.50
37956;DHT22;23776;51.592;7.180;2023-02-18T04:37:36;10.60;97.50
37956;DHT22;23776;51.592;7.180;2023-02-18T04:40:02;10.70;97.30
37956;DHT22;23776;51.592;7.180;2023-02-18T04:42:28;10.70;97.20
37956;DHT22;23776;51.592;7.180;2023-02-18T04:44:54;10.70;97.20
37956;DHT22;23776;51.592;7.180;2023-02-18T04:47:19;10.70;97.00
37956;DHT22;23776;51.592;7.180;2023-02-18T04:49:45;10.70;96.90
37956;DHT22;23776;51.592;7.180;2023-02-18T04:52:10;10.70;97.20
37956;DHT22;23776;51.592;7.180;2023-02-18T04:54:36;10.70;97.20
37956;DHT22;23776;51.592;7.180;2023-02-18T04:57:02;10.70;97.10
37956;DHT22;23776;51.592;7.180;2023-02-18T04:59:27;10.70;97.10
37956;DHT22;23776;51.592;7.180;2023-02-18T05:01:53;10.60;97.20
37956;DHT22;23776;51.592;7.180;2023-02-18T05:04:18;10.70;97.50
37956;DHT22;23776;51.592;7.180;2023-02-18T05:06:44;10.60;97.50
37956;DHT22;23776;51.592;7.180;2023-02-18T05:09:10;10.60;97.60
37956;DHT22;23776;51.592;7.180;2023-02-18T05:11:36;10.60;97.50
37956;DHT22;23776;51.592;7.180;2023-02-18T05:14:02;10.60;97.60
37956;DHT22;23776;51.592;7.180;2023-02-18T05:16:28;10.60;97.70
37956;DHT22;23776;51.592;7.180;2023-02-18T05:18:54;10.60;97.80
37956;DHT22;23776;51.592;7.180;2023-02-18T05:21:19;10.60;97.80
37956;DHT22;23776;51.592;7.180;2023-02-18T05:23:45;10.60;97.70
37956;DHT22;23776;51.592;7.180;2023-02-18T05:26:10;10.60;97.50
37956;DHT22;23776;51.592;7.180;2023-02-18T05:28:36;10.50;98.20
37956;DHT22;23776;51.592;7.180;2023-02-18T05:31:02;10.50;98.40
37956;DHT22;23776;51.592;7.180;2023-02-18T05:33:27;10.50;98.20
37956;DHT22;23776;51.592;7.180;2023-02-18T05:35:53;10.50;98.00
37956;DHT22;23776;51.592;7.180;2023-02-18T05:38:19;10.50;97.70
37956;DHT22;23776;51.592;7.180;2023-02-18T05:40:45;10.50;97.90
37956;DHT22;23776;51.592;7.180;2023-02-18T05:43:10;10.50;98.10
37956;DHT22;23776;51.592;7.180;2023-02-18T05:45:36;10.50;98.20
37956;DHT22;23776;51.592;7.180;2023-02-18T05:48:01;10.50;98.10
37956;DHT22;23776;51.592;7.180;2023-02-18T05:50:27;10.50;98.20
37956;DHT22;23776;51.592;7.180;2023-02-18T05:52:53;10.50;98.40
37956;DHT22;23776;51.592;7.180;2023-02-18T05:55:19;10.50;98.20
37956;DHT22;23776;51.592;7.180;2023-02-18T05:57:44;10.50;98.10
37956;DHT22;23776;51.592;7.180;2023-02-18T06:00:11;10.50;97.90
37956;DHT22;23776;51.592;7.180;2023-02-18T06:02:36;10.40;98.30
37956;DHT22;23776;51.592;7.180;2023-02-18T06:05:03;10.50;98.40
37956;DHT22;23776;51.592;7.180;2023-02-18T06:07:29;10.40;98.20
37956;DHT22;23776;51.592;7.180;2023-02-18T06:09:55;10.40;98.40
37956;DHT22;23776;51.592;7.180;2023-02-18T06:12:20;10.40;98.60
37956;DHT22;23776;51.592;7.180;2023-02-18T06:14:46;10.40;98.50
37956;DHT22;23776;51.592;7.180;2023-02-18T06:17:12;10.50;98.00
37956;DHT22;23776;51.592;7.180;2023-02-18T06:19:38;10.50;98.00
37956;DHT22;23776;51.592;7.180;2023-02-18T06:22:04;10.50;98.20
37956;DHT22;23776;51.592;7.180;2023-02-18T06:24:30;10.50;98.10
37956;DHT22;23776;51.592;7.180;2023-02-18T06:26:55;10.50;97.90
37956;DHT22;23776;51.592;7.180;2023-02-18T06:29:21;10.40;98.50
37956;DHT22;23776;51.592;7.180;2023-02-18T06:31:47;10.40;98.30
37956;DHT22;23776;51.592;7.180;2023-02-18T06:34:13;10.40;98.60
37956;DHT22;23776;51.592;7.180;2023-02-18T06:36:39;10.40;98.70
37956;DHT22;23776;51.592;7.180;2023-02-18T06:39:05;10.40;98.60
37956;DHT22;23776;51.592;7.180;2023-02-18T06:41:31;10.30;99.10
37956;DHT22;23776;51.592;7.180;2023-02-18T06:43:57;10.50;98.90
37956;DHT22;23776;51.592;7.180;2023-02-18T06:46:23;10.30;98.90
37956;DHT22;23776;51.592;7.180;2023-02-18T06:48:48;10.30;98.90
37956;DHT22;23776;51.592;7.180;2023-02-18T06:51:14;10.30;98.80
37956;DHT22;23776;51.592;7.180;2023-02-18T06:53:44;10.30;98.90
37956;DHT22;23776;51.592;7.180;2023-02-18T06:56:10;10.30;99.00
37956;DHT22;23776;51.592;7.180;2023-02-18T06:58:36;10.30;99.10
37956;DHT22;23776;51.592;7.180;2023-02-18T07:01:03;10.20;99.10
37956;DHT22;23776;51.592;7.180;2023-02-18T07:03:28;10.30;99.20
37956;DHT22;23776;51.592;7.180;2023-02-18T07:05:54;10.40;98.90
37956;DHT22;23776;51.592;7.180;2023-02-18T07:08:20;10.30;98.90
37956;DHT22;23776;51.592;7.180;2023-02-18T07:10:46;10.30;99.10
37956;DHT22;23776;51.592;7.180;2023-02-18T07:13:12;10.30;98.60
37956;DHT22;23776;51.592;7.180;2023-02-18T07:15:38;10.30;98.80
37956;DHT22;23776;51.592;7.180;2023-02-18T07:18:04;10.20;98.80
37956;DHT22;23776;51.592;7.180;2023-02-18T07:20:30;10.20;98.80
37956;DHT22;23776;51.592;7.180;2023-02-18T07:22:55;11.80;99.50
37956;DHT22;23776;51.592;7.180;2023-02-18T07:25:21;10.30;98.90
37956;DHT22;23776;51.592;7.180;2023-02-18T07:27:47;10.20;98.90
37956;DHT22;23776;51.592;7.180;2023-02-18T07:30:13;10.20;98.70
37956;DHT22;23776;51.592;7.180;2023-02-18T07:32:39;10.10;98.70
37956;DHT22;23776;51.592;7.180;2023-02-18T07:35:05;10.10;99.00
37956;DHT22;23776;51.592;7.180;2023-02-18T07:37:32;10.10;98.70
37956;DHT22;23776;51.592;7.180;2023-02-18T07:39:57;10.10;98.60
37956;DHT22;23776;51.592;7.180;2023-02-18T07:42:23;10.10;98.60
37956;DHT22;23776;51.592;7.180;2023-02-18T07:44:49;10.00;98.80
37956;DHT22;23776;51.592;7.180;2023-02-18T07:47:16;10.00;99.00
37956;DHT22;23776;51.592;7.180;2023-02-18T07:49:44;10.10;99.10
37956;DHT22;23776;51.592;7.180;2023-02-18T07:52:10;10.10;98.90
37956;DHT22;23776;51.592;7.180;2023-02-18T07:54:36;10.00;99.00
37956;DHT22;23776;51.592;7.180;2023-02-18T07:57:01;10.10;99.10
37956;DHT22;23776;51.592;7.180;2023-02-18T07:59:27;10.00;99.00
37956;DHT22;23776;51.592;7.180;2023-02-18T08:01:53;10.00;98.90
37956;DHT22;23776;51.592;7.180;2023-02-18T08:04:18;10.00;99.10
37956;DHT22;23776;51.592;7.180;2023-02-18T08:06:46;10.00;99.20
37956;DHT22;23776;51.592;7.180;2023-02-18T08:09:12;10.00;99.10
37956;DHT22;23776;51.592;7.180;2023-02-18T08:11:38;10.00;99.00
37956;DHT22;23776;51.592;7.180;2023-02-18T08:14:04;10.00;98.80
37956;DHT22;23776;51.592;7.180;2023-02-18T08:16:30;10.00;98.70
37956;DHT22;23776;51.592;7.180;2023-02-18T08:18:57;9.90;98.20
37956;DHT22;23776;51.592;7.180;2023-02-18T08:21:24;10.00;98.00
37956;DHT22;23776;51.592;7.180;2023-02-18T08:23:51;10.00;97.90
37956;DHT22;23776;51.592;7.180;2023-02-18T08:26:17;10.00;97.40
37956;DHT22;23776;51.592;7.180;2023-02-18T08:28:45;10.10;96.80
37956;DHT22;23776;51.592;7.180;2023-02-18T08:31:25;10.10;95.80
37956;DHT22;23776;51.592;7.180;2023-02-18T08:33:52;10.10;95.50
37956;DHT22;23776;51.592;7.180;2023-02-18T08:36:18;10.10;96.10
37956;DHT22;23776;51.592;7.180;2023-02-18T08:38:44;10.10;95.40
37956;DHT22;23776;51.592;7.180;2023-02-18T08:41:10;10.00;95.20
37956;DHT22;23776;51.592;7.180;2023-02-18T08:43:36;10.00;95.00
37956;DHT22;23776;51.592;7.180;2023-02-18T08:46:01;10.10;95.50
37956;DHT22;23776;51.592;7.180;2023-02-18T08:48:28;10.00;94.50
37956;DHT22;23776;51.592;7.180;2023-02-18T08:50:53;9.90;95.30
37956;DHT22;23776;51.592;7.180;2023-02-18T08:53:20;9.80;95.00
37956;DHT22;23776;51.592;7.180;2023-02-18T08:55:45;9.80;95.50
37956;DHT22;23776;51.592;7.180;2023-02-18T08:58:11;9.80;95.40
37956;DHT22;23776;51.592;7.180;2023-02-18T09:00:38;9.80;95.60
37956;DHT22;23776;51.592;7.180;2023-02-18T09:03:04;9.80;96.10
37956;DHT22;23776;51.592;7.180;2023-02-18T09:05:30;9.80;95.70
37956;DHT22;23776;51.592;7.180;2023-02-18T09:07:55;9.80;95.40
37956;DHT22;23776;51.592;7.180;2023-02-18T09:10:21;9.70;94.70
37956;DHT22;23776;51.592;7.180;2023-02-18T09:12:47;9.70;95.20
37956;DHT22;23776;51.592;7.180;2023-02-18T09:15:13;9.80;95.30
37956;DHT22;23776;51.592;7.180;2023-02-18T09:17:38;9.80;94.40
37956;DHT22;23776;51.592;7.180;2023-02-18T09:20:05;9.60;93.90
37956;DHT22;23776;51.592;7.180;2023-02-18T09:22:31;9.60;93.90
37956;DHT22;23776;51.592;7.180;2023-02-18T09:24:57;9.60;93.80
37956;DHT22;23776;51.592;7.180;2023-02-18T09:27:23;9.60;92.60
37956;DHT22;23776;51.592;7.180;2023-02-18T09:29:48;9.60;92.50
37956;DHT22;23776;51.592;7.180;2023-02-18T09:32:15;9.50;92.70
37956;DHT22;23776;51.592;7.180;2023-02-18T09:34:43;9.60;92.60
37956;DHT22;23776;51.592;7.180;2023-02-18T09:37:09;9.60;92.10
37956;DHT22;23776;51.592;7.180;2023-02-18T09:39:35;9.60;91.20
37956;DHT22;23776;51.592;7.180;2023-02-18T09:42:12;9.60;86.70
37956;DHT22;23776;51.592;7.180;2023-02-18T09:44:44;9.70;87.70
37956;DHT22;23776;51.592;7.180;2023-02-18T09:47:14;10.40;88.70
37956;DHT22;23776;51.592;7.180;2023-02-18T09:49:47;9.50;91.80
37956;DHT22;23776;51.592;7.180;2023-02-18T09:52:20;9.50;90.40
37956;DHT22;23776;51.592;7.180;2023-02-18T09:54:51;9.50;90.70
37956;DHT22;23776;51.592;7.180;2023-02-18T09:57:23;9.50;91.30
37956;DHT22;23776;51.592;7.180;2023-02-18T09:59:56;9.40;90.40
37956;DHT22;23776;51.592;7.180;2023-02-18T10:02:24;9.40;91.50
37956;DHT22;23776;51.592;7.180;2023-02-18T10:04:50;9.40;92.40
37956;DHT22;23776;51.592;7.180;2023-02-18T10:07:27;9.50;91.40
37956;DHT22;23776;51.592;7.180;2023-02-18T10:09:56;9.60;91.40
37956;DHT22;23776;51.592;7.180;2023-02-18T10:12:24;9.60;90.90
37956;DHT22;23776;51.592;7.180;2023-02-18T10:14:55;9.60;88.80
37956;DHT22;23776;51.592;7.180;2023-02-18T10:17:24;9.60;87.00
37956;DHT22;23776;51.592;7.180;2023-02-18T10:19:51;9.60;87.80
37956;DHT22;23776;51.592;7.180;2023-02-18T10:22:19;9.60;90.00
37956;DHT22;23776;51.592;7.180;2023-02-18T10:24:56;9.60;89.20
37956;DHT22;23776;51.592;7.180;2023-02-18T10:29:51;7.90;87.30
37956;DHT22;23776;51.592;7.180;2023-02-18T10:32:26;9.60;88.30
37956;DHT22;23776;51.592;7.180;2023-02-18T10:35:16;9.60;90.00
37956;DHT22;23776;51.592;7.180;2023-02-18T10:40:50;9.50;90.80
37956;DHT22;23776;51.592;7.180;2023-02-18T10:46:27;9.50;92.60
37956;DHT22;23776;51.592;7.180;2023-02-18T10:51:34;9.40;92.80
37956;DHT22;23776;51.592;7.180;2023-02-18T10:54:02;9.40;93.50
37956;DHT22;23776;51.592;7.180;2023-02-18T10:56:39;9.40;94.00
37956;DHT22;23776;51.592;7.180;2023-02-18T10:59:22;9.40;95.00
37956;DHT22;23776;51.592;7.180;2023-02-18T11:02:01;9.40;95.30
37956;DHT22;23776;51.592;7.180;2023-02-18T11:04:39;9.40;95.50
37956;DHT22;23776;51.592;7.180;2023-02-18T11:07:32;9.30;95.40
37956;DHT22;23776;51.592;7.180;2023-02-18T11:10:01;9.30;95.90
37956;DHT22;23776;51.592;7.180;2023-02-18T11:17:40;9.20;96.60
37956;DHT22;23776;51.592;7.180;2023-02-18T11:20:23;9.20;97.10
37956;DHT22;23776;51.592;7.180;2023-02-18T11:22:50;9.20;97.30
37956;DHT22;23776;51.592;7.180;2023-02-18T11:25:20;9.30;97.60
37956;DHT22;23776;51.592;7.180;2023-02-18T11:28:04;9.30;97.30
37956;DHT22;23776;51.592;7.180;2023-02-18T11:30:39;9.30;97.30
37956;DHT22;23776;51.592;7.180;2023-02-18T11:33:23;9.30;97.50
37956;DHT22;23776;51.592;7.180;2023-02-18T11:35:54;9.40;97.70
37956;DHT22;23776;51.592;7.180;2023-02-18T11:38:37;9.40;97.40
37956;DHT22;23776;51.592;7.180;2023-02-18T11:41:15;9.30;97.40
37956;DHT22;23776;51.592;7.180;2023-02-18T11:43:48;9.40;97.30
37956;DHT22;23776;51.592;7.180;2023-02-18T11:46:19;9.40;97.50
37956;DHT22;23776;51.592;7.180;2023-02-18T11:48:46;9.40;97.70
37956;DHT22;23776;51.592;7.180;2023-02-18T11:51:32;9.40;97.20
37956;DHT22;23776;51.592;7.180;2023-02-18T11:54:00;9.40;97.70
37956;DHT22;23776;51.592;7.180;2023-02-18T11:56:30;9.50;97.70
37956;DHT22;23776;51.592;7.180;2023-02-18T11:58:57;9.40;97.60
37956;DHT22;23776;51.592;7.180;2023-02-18T12:01:40;9.40;98.00
37956;DHT22;23776;51.592;7.180;2023-02-18T12:04:13;9.40;97.80
37956;DHT22;23776;51.592;7.180;2023-02-18T12:09:45;9.50;98.20
37956;DHT22;23776;51.592;7.180;2023-02-18T12:14:43;9.60;98.10
37956;DHT22;23776;51.592;7.180;2023-02-18T12:23:15;9.60;98.10
37956;DHT22;23776;51.592;7.180;2023-02-18T12:26:18;9.60;97.80
37956;DHT22;23776;51.592;7.180;2023-02-18T12:32:08;9.60;98.00
37956;DHT22;23776;51.592;7.180;2023-02-18T12:37:34;9.60;98.30
37956;DHT22;23776;51.592;7.180;2023-02-18T12:43:13;9.60;98.50
37956;DHT22;23776;51.592;7.180;2023-02-18T12:51:41;9.50;98.70
37956;DHT22;23776;51.592;7.180;2023-02-18T13:11:53;9.70;98.50
37956;DHT22;23776;51.592;7.180;2023-02-18T13:14:28;9.80;98.40
37956;DHT22;23776;51.592;7.180;2023-02-18T13:16:57;9.70;98.10
37956;DHT22;23776;51.592;7.180;2023-02-18T13:19:26;9.70;98.20
37956;DHT22;23776;51.592;7.180;2023-02-18T13:21:58;9.70;98.50
37956;DHT22;23776;51.592;7.180;2023-02-18T13:24:46;9.70;98.80
37956;DHT22;23776;51.592;7.180;2023-02-18T13:29:57;9.70;99.00
37956;DHT22;23776;51.592;7.180;2023-02-18T13:32:47;9.70;99.00
37956;DHT22;23776;51.592;7.180;2023-02-18T13:35:23;9.70;99.10
37956;DHT22;23776;51.592;7.180;2023-02-18T13:40:29;9.70;99.30
37956;DHT22;23776;51.592;7.180;2023-02-18T13:43:31;9.70;99.30
37956;DHT22;23776;51.592;7.180;2023-02-18T13:48:47;9.80;99.40
37956;DHT22;23776;51.592;7.180;2023-02-18T13:51:16;9.80;99.40
37956;DHT22;23776;51.592;7.180;2023-02-18T13:53:51;9.80;99.40
37956;DHT22;23776;51.592;7.180;2023-02-18T13:56:22;9.80;99.50
37956;DHT22;23776;51.592;7.180;2023-02-18T13:58:55;9.80;99.30
37956;DHT22;23776;51.592;7.180;2023-02-18T14:01:35;9.90;99.30
37956;DHT22;23776;51.592;7.180;2023-02-18T14:04:02;9.90;99.10
37956;DHT22;23776;51.592;7.180;2023-02-18T14:06:34;9.90;99.10
37956;DHT22;23776;51.592;7.180;2023-02-18T14:11:33;9.80;99.20
37956;DHT22;23776;51.592;7.180;2023-02-18T14:19:42;9.90;99.20
37956;DHT22;23776;51.592;7.180;2023-02-18T14:25:15;10.00;99.60
37956;DHT22;23776;51.592;7.180;2023-02-18T14:27:41;10.00;99.40
37956;DHT22;23776;51.592;7.180;2023-02-18T14:30:34;10.00;99.20
37956;DHT22;23776;51.592;7.180;2023-02-18T14:33:01;10.00;99.10
37956;DHT22;23776;51.592;7.180;2023-02-18T14:38:41;10.00;98.90
37956;DHT22;23776;51.592;7.180;2023-02-18T14:44:16;10.00;99.30
37956;DHT22;23776;51.592;7.180;2023-02-18T14:47:01;10.00;99.10
37956;DHT22;23776;51.592;7.180;2023-02-18T14:49:49;10.00;99.40
37956;DHT22;23776;51.592;7.180;2023-02-18T14:52:32;10.10;99.50
37956;DHT22;23776;51.592;7.180;2023-02-18T14:55:00;10.10;99.10
37956;DHT22;23776;51.592;7.180;2023-02-18T14:57:40;10.10;99.20
37956;DHT22;23776;51.592;7.180;2023-02-18T15:00:16;10.10;99.10
37956;DHT22;23776;51.592;7.180;2023-02-18T15:02:42;10.10;98.90
37956;DHT22;23776;51.592;7.180;2023-02-18T15:05:23;10.10;99.00
37956;DHT22;23776;51.592;7.180;2023-02-18T15:08:06;10.20;99.10
37956;DHT22;23776;51.592;7.180;2023-02-18T15:13:17;10.20;98.90
37956;DHT22;23776;51.592;7.180;2023-02-18T15:15:44;10.20;98.70
37956;DHT22;23776;51.592;7.180;2023-02-18T15:20:54;10.10;98.90
37956;DHT22;23776;51.592;7.180;2023-02-18T15:23:20;10.30;99.20
37956;DHT22;23776;51.592;7.180;2023-02-18T15:25:52;10.10;99.20
37956;DHT22;23776;51.592;7.180;2023-02-18T15:28:27;10.20;99.40
37956;DHT22;23776;51.592;7.180;2023-02-18T15:30:55;8.20;99.10
37956;DHT22;23776;51.592;7.180;2023-02-18T15:33:21;10.30;99.30
37956;DHT22;23776;51.592;7.180;2023-02-18T15:35:47;10.30;99.10
37956;DHT22;23776;51.592;7.180;2023-02-18T15:38:15;10.20;98.70
37956;DHT22;23776;51.592;7.180;2023-02-18T15:40:41;10.20;98.90
37956;DHT22;23776;51.592;7.180;2023-02-18T15:43:08;10.20;98.60
37956;DHT22;23776;51.592;7.180;2023-02-18T15:45:41;10.70;98.70
37956;DHT22;23776;51.592;7.180;2023-02-18T15:48:26;10.30;98.60
37956;DHT22;23776;51.592;7.180;2023-02-18T15:50:55;10.30;98.50
37956;DHT22;23776;51.592;7.180;2023-02-18T15:53:22;10.30;98.90
37956;DHT22;23776;51.592;7.180;2023-02-18T15:55:51;10.40;98.70
37956;DHT22;23776;51.592;7.180;2023-02-18T15:58:30;10.30;98.50
37956;DHT22;23776;51.592;7.180;2023-02-18T16:00:59;10.30;98.70
37956;DHT22;23776;51.592;7.180;2023-02-18T16:03:27;10.40;98.70
37956;DHT22;23776;51.592;7.180;2023-02-18T16:06:10;10.30;98.60
37956;DHT22;23776;51.592;7.180;2023-02-18T16:08:37;10.30;98.30
37956;DHT22;23776;51.592;7.180;2023-02-18T16:11:09;10.40;98.30
37956;DHT22;23776;51.592;7.180;2023-02-18T16:13:36;10.30;97.50
37956;DHT22;23776;51.592;7.180;2023-02-18T16:16:29;10.30;97.50
37956;DHT22;23776;51.592;7.180;2023-02-18T16:18:56;10.40;97.20
37956;DHT22;23776;51.592;7.180;2023-02-18T16:21:27;10.40;96.90
37956;DHT22;23776;51.592;7.180;2023-02-18T16:23:59;10.40;96.30
37956;DHT22;23776;51.592;7.180;2023-02-18T16:26:40;10.40;96.50
37956;DHT22;23776;51.592;7.180;2023-02-18T16:31:49;10.40;96.60
37956;DHT22;23776;51.592;7.180;2023-02-18T16:34:15;10.50;96.60
37956;DHT22;23776;51.592;7.180;2023-02-18T16:36:42;10.50;96.30
37956;DHT22;23776;51.592;7.180;2023-02-18T16:39:31;10.40;96.10
37956;DHT22;23776;51.592;7.180;2023-02-18T16:41:57;10.40;96.40
37956;DHT22;23776;51.592;7.180;2023-02-18T16:44:23;10.40;96.50
37956;DHT22;23776;51.592;7.180;2023-02-18T16:46:48;10.50;96.50
37956;DHT22;23776;51.592;7.180;2023-02-18T16:49:14;10.50;96.20
37956;DHT22;23776;51.592;7.180;2023-02-18T16:51:41;10.40;96.50
37956;DHT22;23776;51.592;7.180;2023-02-18T16:54:11;10.40;96.70
37956;DHT22;23776;51.592;7.180;2023-02-18T16:56:37;10.40;96.80
37956;DHT22;23776;51.592;7.180;2023-02-18T16:59:03;10.30;97.10
37956;DHT22;23776;51.592;7.180;2023-02-18T17:01:31;10.30;97.40
37956;DHT22;23776;51.592;7.180;2023-02-18T17:03:59;10.30;97.80
37956;DHT22;23776;51.592;7.180;2023-02-18T17:06:25;10.40;97.60
37956;DHT22;23776;51.592;7.180;2023-02-18T17:08:50;10.40;97.50
37956;DHT22;23776;51.592;7.180;2023-02-18T17:11:25;10.40;97.20
37956;DHT22;23776;51.592;7.180;2023-02-18T17:13:53;10.40;97.10
37956;DHT22;23776;51.592;7.180;2023-02-18T17:16:19;10.40;96.90
37956;DHT22;23776;51.592;7.180;2023-02-18T17:18:46;10.40;96.90
37956;DHT22;23776;51.592;7.180;2023-02-18T17:21:13;10.40;96.70
37956;DHT22;23776;51.592;7.180;2023-02-18T17:23:40;10.40;96.40
37956;DHT22;23776;51.592;7.180;2023-02-18T17:26:11;10.40;96.30
37956;DHT22;23776;51.592;7.180;2023-02-18T17:28:38;10.40;96.80
37956;DHT22;23776;51.592;7.180;2023-02-18T17:31:04;10.40;96.40
37956;DHT22;23776;51.592;7.180;2023-02-18T17:33:29;12.20;96.60
37956;DHT22;23776;51.592;7.180;2023-02-18T17:35:55;10.30;96.50
37956;DHT22;23776;51.592;7.180;2023-02-18T17:38:20;10.30;95.50
37956;DHT22;23776;51.592;7.180;2023-02-18T17:40:47;10.30;95.70
37956;DHT22;23776;51.592;7.180;2023-02-18T17:43:15;10.30;96.10
37956;DHT22;23776;51.592;7.180;2023-02-18T17:45:59;10.30;95.70
37956;DHT22;23776;51.592;7.180;2023-02-18T17:48:25;10.40;95.80
37956;DHT22;23776;51.592;7.180;2023-02-18T17:50:51;10.30;95.30
37956;DHT22;23776;51.592;7.180;2023-02-18T17:53:18;10.20;95.90
37956;DHT22;23776;51.592;7.180;2023-02-18T17:55:45;10.20;96.00
37956;DHT22;23776;51.592;7.180;2023-02-18T17:58:11;10.30;96.30